Time;durP1;ratioP1;P1;durP2;ratioP2;P2;SDS_P1;SDS_P2;PMS_P1;PMS_P2;Temp;Humidity;BMP_temperature;BMP_pressure;BME280_temperature;BME280_humidity;BME280_pressure;Samples;Min_cycle;Max_cycle;Signal;HPM_P1;HPM_P2
2022/12/16 00:00:21;;;;;;;74.63;28.73;;;;;;;;;;4963396;29;20023;-82
2022/12/16 00:02:47;;;;;;;60.05;23.85;;;;;;;;;;4964032;29;20038;-81
2022/12/16 00:05:13;;;;;;;56.92;24.90;;;;;;;;;;4963312;28;20373;-81
2022/12/16 00:07:39;;;;;;;61.88;23.50;;;;;;;;;;4963893;28;20015;-80
2022/12/16 00:10:06;;;;;;;57.38;23.48;;;;;;;;;;4965553;29;20106;-80
2022/12/16 00:12:32;;;;;;;53.78;23.73;;;;;;;;;;4965748;28;20030;-82
2022/12/16 00:14:58;;;;;;;56.08;23.20;;;;;;;;;;4965729;28;20401;-81
2022/12/16 00:17:24;;;;;;;50.05;21.55;;;;;;;;;;4966302;29;20056;-81
2022/12/16 00:19:50;;;;;;;55.97;22.02;;;;;;;;;;4965348;28;20042;-82
2022/12/16 00:22:16;;;;;;;66.47;25.85;;;;;;;;;;4965485;28;20055;-82
2022/12/16 00:24:43;;;;;;;54.72;22.65;;;;;;;;;;4966095;28;20397;-82
2022/12/16 00:27:09;;;;;;;57.75;23.35;;;;;;;;;;4965191;28;20121;-82
2022/12/16 00:29:35;;;;;;;57.85;23.55;;;;;;;;;;4964514;29;20027;-82
2022/12/16 00:32:01;;;;;;;54.83;24.30;;;;;;;;;;4964796;29;20030;-82
2022/12/16 00:34:28;;;;;;;56.78;21.92;;;;;;;;;;4965565;29;20043;-82
2022/12/16 00:36:53;;;;;;;50.30;20.98;;;;;;;;;;4963580;28;20023;-81
2022/12/16 00:39:19;;;;;;;56.40;23.40;;;;;;;;;;4964613;29;20114;-81
2022/12/16 00:41:49;;;;;;;42.42;19.15;;;;;;;;;;4964832;29;20058;-80
2022/12/16 00:44:15;;;;;;;49.40;18.92;;;;;;;;;;4964503;29;20027;-81
2022/12/16 00:46:41;;;;;;;36.38;19.77;;;;;;;;;;4963996;29;20065;-80
2022/12/16 00:49:07;;;;;;;48.20;18.60;;;;;;;;;;4964471;29;20031;-80
2022/12/16 00:51:34;;;;;;;45.83;20.00;;;;;;;;;;4965307;29;20023;-80
2022/12/16 00:54:00;;;;;;;36.92;17.27;;;;;;;;;;4965181;28;20493;-80
2022/12/16 00:56:26;;;;;;;45.85;17.95;;;;;;;;;;4957440;28;20023;-79
2022/12/16 00:58:52;;;;;;;37.75;16.75;;;;;;;;;;4963912;29;20087;-79
2022/12/16 01:01:18;;;;;;;41.17;19.20;;;;;;;;;;4964403;29;20125;-80
2022/12/16 01:03:44;;;;;;;38.33;19.50;;;;;;;;;;4963724;29;20027;-81
2022/12/16 01:06:15;;;;;;;39.65;20.15;;;;;;;;;;4964822;28;20027;-80
2022/12/16 01:08:47;;;;;;;42.75;21.15;;;;;;;;;;4963842;28;20019;-79
2022/12/16 01:11:14;;;;;;;40.45;19.05;;;;;;;;;;4962729;29;20019;-81
2022/12/16 01:13:41;;;;;;;44.65;19.77;;;;;;;;;;4964026;29;20031;-80
2022/12/16 01:16:07;;;;;;;47.38;22.45;;;;;;;;;;4961965;29;20035;-82
2022/12/16 01:18:33;;;;;;;54.20;24.40;;;;;;;;;;4961487;28;20382;-80
2022/12/16 01:21:03;;;;;;;48.40;21.92;;;;;;;;;;4962724;28;20046;-81
2022/12/16 01:23:29;;;;;;;50.35;24.45;;;;;;;;;;4963024;29;20039;-80
2022/12/16 01:25:57;;;;;;;47.50;23.83;;;;;;;;;;4963696;28;20086;-81
2022/12/16 01:28:24;;;;;;;39.20;18.98;;;;;;;;;;4963744;29;20024;-80
2022/12/16 01:30:55;;;;;;;51.10;21.58;;;;;;;;;;4963862;29;20038;-81
2022/12/16 01:33:22;;;;;;;41.90;19.70;;;;;;;;;;4962645;28;20083;-81
2022/12/16 01:35:48;;;;;;;39.15;20.88;;;;;;;;;;4961322;28;20282;-82
2022/12/16 01:38:14;;;;;;;35.75;19.27;;;;;;;;;;4962630;29;20031;-81
2022/12/16 01:40:40;;;;;;;33.25;18.27;;;;;;;;;;4961242;29;20035;-81
2022/12/16 01:43:13;;;;;;;29.52;15.73;;;;;;;;;;4961831;28;20438;-82
2022/12/16 01:45:39;;;;;;;30.60;17.33;;;;;;;;;;4961868;29;20023;-83
2022/12/16 01:48:24;;;;;;;32.28;17.52;;;;;;;;;;4962951;29;20034;-83
2022/12/16 01:50:51;;;;;;;29.65;16.23;;;;;;;;;;4961813;28;20031;-81
2022/12/16 01:53:17;;;;;;;33.33;18.92;;;;;;;;;;4963665;28;20034;-81
2022/12/16 01:55:48;;;;;;;28.98;16.48;;;;;;;;;;4951459;28;20445;-82
2022/12/16 01:58:19;;;;;;;26.10;16.15;;;;;;;;;;4963663;28;20047;-81
2022/12/16 02:00:45;;;;;;;26.35;15.43;;;;;;;;;;4964386;29;20051;-82
2022/12/16 02:03:11;;;;;;;30.58;16.50;;;;;;;;;;4961367;28;20027;-81
2022/12/16 02:05:39;;;;;;;29.77;15.82;;;;;;;;;;4958580;28;20111;-82
2022/12/16 02:08:05;;;;;;;26.00;15.30;;;;;;;;;;4964014;28;20040;-81
2022/12/16 02:10:47;;;;;;;24.90;14.23;;;;;;;;;;4963176;28;20114;-83
2022/12/16 02:13:32;;;;;;;25.60;14.40;;;;;;;;;;4962926;29;20031;-82
2022/12/16 02:16:14;;;;;;;28.08;16.73;;;;;;;;;;4962736;28;20065;-82
2022/12/16 02:18:43;;;;;;;26.08;15.20;;;;;;;;;;4964489;28;20397;-81
2022/12/16 02:21:09;;;;;;;26.35;14.60;;;;;;;;;;4965951;28;20047;-82
2022/12/16 02:23:38;;;;;;;23.20;14.90;;;;;;;;;;4969088;28;20031;-82
2022/12/16 02:26:24;;;;;;;27.80;15.30;;;;;;;;;;4967562;28;20038;-81
2022/12/16 02:29:07;;;;;;;26.25;14.80;;;;;;;;;;4967633;28;20039;-82
2022/12/16 02:31:33;;;;;;;21.35;13.32;;;;;;;;;;4966674;28;20023;-82
2022/12/16 02:34:09;;;;;;;25.13;14.85;;;;;;;;;;4966836;28;20043;-82
2022/12/16 02:36:41;;;;;;;25.40;14.52;;;;;;;;;;4965703;29;20025;-81
2022/12/16 02:39:21;;;;;;;28.50;14.85;;;;;;;;;;4968126;29;20028;-83
2022/12/16 02:41:48;;;;;;;25.40;14.32;;;;;;;;;;4965907;28;20038;-81
2022/12/16 02:44:16;;;;;;;23.27;13.15;;;;;;;;;;4967021;29;20023;-83
2022/12/16 02:46:43;;;;;;;24.40;13.70;;;;;;;;;;4969109;28;20037;-82
2022/12/16 02:49:30;;;;;;;24.02;15.07;;;;;;;;;;4967119;29;20027;-82
2022/12/16 02:51:57;;;;;;;23.35;13.00;;;;;;;;;;4941739;29;20038;-82
2022/12/16 02:54:23;;;;;;;22.80;14.88;;;;;;;;;;4972705;28;20038;-80
2022/12/16 02:56:53;;;;;;;26.85;14.75;;;;;;;;;;4970078;28;20105;-83
2022/12/16 02:59:27;;;;;;;24.15;14.00;;;;;;;;;;4970029;28;20745;-82
2022/12/16 03:02:11;;;;;;;21.60;13.55;;;;;;;;;;4969144;28;20690;-82
2022/12/16 03:04:48;;;;;;;24.27;13.55;;;;;;;;;;4967451;29;20087;-81
2022/12/16 03:07:16;;;;;;;26.48;13.68;;;;;;;;;;4968241;28;20027;-82
2022/12/16 03:09:44;;;;;;;26.13;14.43;;;;;;;;;;4968468;28;20099;-81
2022/12/16 03:12:11;;;;;;;26.02;14.77;;;;;;;;;;4967730;28;20084;-82
2022/12/16 03:14:39;;;;;;;23.98;13.43;;;;;;;;;;4965960;28;20121;-83
2022/12/16 03:17:06;;;;;;;24.20;13.23;;;;;;;;;;4968562;29;20469;-83
2022/12/16 03:19:33;;;;;;;23.50;13.20;;;;;;;;;;4967133;28;20023;-82
2022/12/16 03:21:59;;;;;;;24.55;14.20;;;;;;;;;;4966209;28;20043;-82
2022/12/16 03:24:26;;;;;;;25.65;14.73;;;;;;;;;;4966406;28;20055;-83
2022/12/16 03:27:07;;;;;;;21.95;13.52;;;;;;;;;;4966887;28;20057;-83
2022/12/16 03:30:02;;;;;;;25.63;13.93;;;;;;;;;;4966536;28;20030;-83
2022/12/16 03:32:28;;;;;;;22.17;12.98;;;;;;;;;;4939844;28;20031;-82
2022/12/16 03:35:00;;;;;;;22.58;13.00;;;;;;;;;;4965956;28;20034;-83
2022/12/16 03:37:29;;;;;;;25.52;14.40;;;;;;;;;;4966513;29;20046;-82
2022/12/16 03:39:57;;;;;;;22.40;12.40;;;;;;;;;;4967672;28;20049;-81
2022/12/16 03:42:24;;;;;;;20.38;12.95;;;;;;;;;;4967893;29;20126;-82
2022/12/16 03:44:50;;;;;;;23.70;13.13;;;;;;;;;;4967156;28;20046;-81
2022/12/16 03:47:16;;;;;;;24.40;12.00;;;;;;;;;;4965787;28;20035;-81
2022/12/16 03:49:42;;;;;;;24.38;12.90;;;;;;;;;;4966257;28;20047;-82
2022/12/16 03:52:08;;;;;;;21.05;12.13;;;;;;;;;;4966001;28;20031;-82
2022/12/16 03:54:34;;;;;;;21.80;11.65;;;;;;;;;;4965668;29;20023;-81
2022/12/16 03:57:00;;;;;;;23.30;11.05;;;;;;;;;;4966638;28;20031;-82
2022/12/16 03:59:27;;;;;;;21.45;12.30;;;;;;;;;;4966228;28;20050;-82
2022/12/16 04:01:53;;;;;;;26.17;12.82;;;;;;;;;;4964233;29;20027;-82
2022/12/16 04:04:19;;;;;;;24.05;12.65;;;;;;;;;;4961104;28;20023;-80
2022/12/16 04:07:19;;;;;;;24.88;13.43;;;;;;;;;;4957878;28;20078;-82
2022/12/16 04:09:31;;;;;;;27.20;13.52;;;;;;;;;;4958905;28;20027;-82
2022/12/16 04:25:45;;;;;;;23.85;12.80;;;;;;;;;;4960468;28;20034;-81
2022/12/16 04:28:11;;;;;;;22.85;12.05;;;;;;;;;;4959445;28;20047;-82
2022/12/16 04:30:37;;;;;;;22.02;12.32;;;;;;;;;;4961008;28;20027;-81
